Time;durP1;ratioP1;P1;durP2;ratioP2;P2;SDS_P1;SDS_P2;PMS_P1;PMS_P2;Temp;Humidity;BMP_temperature;BMP_pressure;BME280_temperature;BME280_humidity;BME280_pressure;Samples;Min_cycle;Max_cycle;Signal;HPM_P1;HPM_P2
2021/09/28 00:00:04;;;;;;;;;9.00;7.00;;;;;13.59;80.81;102097.25;4982814;28;45823;-70
2021/09/28 00:02:30;;;;;;;;;8.25;8.25;;;;;13.56;80.58;102095.53;4986548;28;45496;-70
2021/09/28 00:04:55;;;;;;;;;7.50;7.00;;;;;13.45;80.65;102078.34;4988294;28;51942;-70
2021/09/28 00:07:20;;;;;;;;;9.25;6.50;;;;;13.57;80.63;102104.34;4993405;28;45359;-70
2021/09/28 00:09:46;;;;;;;;;8.50;6.00;;;;;13.55;80.97;102108.81;4976630;28;45410;-70
2021/09/28 00:12:12;;;;;;;;;8.50;8.25;;;;;13.54;81.10;102102.69;4990841;28;45507;-70
2021/09/28 00:14:38;;;;;;;;;5.00;4.75;;;;;13.48;80.75;102099.38;4991168;28;45502;-70
2021/09/28 00:17:04;;;;;;;;;7.25;6.50;;;;;13.45;80.82;102096.81;4990399;28;46176;-70
2021/09/28 00:19:29;;;;;;;;;7.75;6.00;;;;;13.34;80.92;102091.03;4992695;28;45483;-70
2021/09/28 00:21:54;;;;;;;;;6.50;5.00;;;;;13.35;80.85;102098.91;5010041;28;45315;-70
2021/09/28 00:24:20;;;;;;;;;6.25;6.00;;;;;13.44;80.95;102108.31;4990927;28;45439;-70
2021/09/28 00:26:45;;;;;;;;;9.50;6.00;;;;;13.44;80.85;102113.59;4986557;28;53654;-70
2021/09/28 00:29:10;;;;;;;;;6.75;6.75;;;;;13.43;80.75;102111.88;4980244;28;58295;-70
2021/09/28 00:31:36;;;;;;;;;5.75;5.00;;;;;13.40;80.69;102110.19;4981440;28;45495;-70
2021/09/28 00:34:01;;;;;;;;;11.00;6.25;;;;;13.39;80.88;102120.81;5008629;28;46396;-70
2021/09/28 00:36:26;;;;;;;;;6.50;5.50;;;;;13.35;80.69;102121.81;4978124;28;48877;-70
2021/09/28 00:38:52;;;;;;;;;5.75;5.50;;;;;13.23;80.78;102108.09;4982360;28;45518;-70
2021/09/28 00:41:18;;;;;;;;;6.50;5.75;;;;;13.27;80.91;102120.28;4987976;28;45537;-70
2021/09/28 00:43:51;;;;;;;;;9.00;7.25;;;;;13.25;80.78;102127.38;4989235;28;45483;-70
2021/09/28 00:46:17;;;;;;;;;7.00;6.00;;;;;13.22;80.80;102130.13;4978328;28;46447;-70
2021/09/28 00:48:43;;;;;;;;;6.00;6.00;;;;;13.20;81.16;102125.75;4994925;28;45395;-70
2021/09/28 00:51:10;;;;;;;;;9.75;5.75;;;;;13.15;81.10;102123.25;4990009;28;45408;-70
2021/09/28 00:53:38;;;;;;;;;6.50;5.00;;;;;13.16;80.93;102135.56;4985523;28;45515;-70
2021/09/28 00:56:05;;;;;;;;;7.00;5.00;;;;;13.15;81.20;102136.47;4989967;28;46584;-70
2021/09/28 00:58:30;;;;;;;;;7.50;5.00;;;;;13.13;80.92;102133.03;4980049;28;45725;-70
2021/09/28 01:00:56;;;;;;;;;6.50;5.00;;;;;13.17;81.09;102128.53;4978712;28;45848;-70
2021/09/28 01:03:23;;;;;;;;;10.00;6.50;;;;;13.15;81.08;102123.25;4990739;28;45448;-70
2021/09/28 01:05:50;;;;;;;;;7.25;5.50;;;;;13.16;81.37;102137.34;4985809;28;45443;-70
2021/09/28 01:08:15;;;;;;;;;8.00;6.50;;;;;13.13;81.28;102121.59;4985715;28;45873;-70
2021/09/28 01:10:40;;;;;;;;;5.00;5.00;;;;;13.11;81.28;102115.53;4979131;28;45719;-70
2021/09/28 01:13:05;;;;;;;;;9.50;7.75;;;;;13.11;81.15;102108.47;4989291;28;45322;-70
2021/09/28 01:15:31;;;;;;;;;12.00;9.00;;;;;13.11;80.87;102103.19;4989270;28;56202;-70
2021/09/28 01:17:56;;;;;;;;;6.50;6.00;;;;;13.12;81.15;102107.53;4983683;28;45522;-70
2021/09/28 01:20:21;;;;;;;;;7.75;5.50;;;;;13.10;81.23;102112.00;4989576;28;45923;-70
2021/09/28 01:22:47;;;;;;;;;6.75;6.50;;;;;13.09;81.22;102098.84;4990052;28;45553;-70
2021/09/28 01:25:12;;;;;;;;;5.25;5.25;;;;;13.13;81.30;102111.03;4994287;28;46274;-70
2021/09/28 01:27:39;;;;;;;;;7.25;6.25;;;;;13.11;81.29;102103.19;4990630;28;45372;-70
2021/09/28 01:30:07;;;;;;;;;7.25;6.00;;;;;13.10;81.30;102109.34;4987949;28;45579;-70
2021/09/28 01:32:33;;;;;;;;;6.00;5.25;;;;;13.06;81.26;102105.97;4984744;28;45610;-70
2021/09/28 01:35:00;;;;;;;;;10.00;6.00;;;;;13.07;81.61;102106.81;4988750;28;46201;-70
2021/09/28 01:37:25;;;;;;;;;9.25;4.75;;;;;13.07;81.55;102101.53;4990640;28;45851;-70
2021/09/28 01:39:50;;;;;;;;;6.00;5.00;;;;;13.06;81.46;102102.47;4980712;28;45415;-70
2021/09/28 01:42:16;;;;;;;;;5.75;5.00;;;;;13.07;81.07;102107.69;4989948;28;45448;-70
2021/09/28 01:44:42;;;;;;;;;8.25;5.75;;;;;13.06;81.44;102102.47;4988977;28;46021;-70
2021/09/28 01:47:07;;;;;;;;;10.00;6.75;;;;;13.04;81.54;102102.50;4989984;28;45966;-70
2021/09/28 01:49:34;;;;;;;;;6.00;5.00;;;;;13.02;81.41;102099.06;4982857;28;45642;-70
2021/09/28 01:52:00;;;;;;;;;3.75;3.00;;;;;13.00;81.37;102107.94;4997555;28;45467;-70
2021/09/28 01:54:25;;;;;;;;;7.25;5.00;;;;;13.01;81.63;102094.69;4992228;28;45489;-70
2021/09/28 01:56:51;;;;;;;;;8.50;4.00;;;;;12.97;81.57;102100.97;4982649;28;45463;-70
2021/09/28 01:59:16;;;;;;;;;6.25;4.25;;;;;12.96;81.50;102093.09;4982607;28;45427;-70
2021/09/28 02:01:42;;;;;;;;;6.75;6.00;;;;;12.97;81.65;102100.09;4990578;28;45472;-70
2021/09/28 02:04:07;;;;;;;;;3.75;3.75;;;;;12.94;81.70;102095.78;4978193;28;46965;-70
2021/09/28 02:06:38;;;;;;;;;7.00;5.00;;;;;12.93;81.77;102094.06;4989606;28;59973;-70
2021/09/28 02:09:05;;;;;;;;;5.25;4.00;;;;;12.90;81.79;102093.31;4988877;28;45462;-70
2021/09/28 02:11:31;;;;;;;;;8.00;4.75;;;;;12.90;81.71;102093.31;4989222;28;45605;-70
2021/09/28 02:13:58;;;;;;;;;5.50;5.00;;;;;12.87;81.87;102083.69;4988721;28;46903;-70
2021/09/28 02:16:23;;;;;;;;;7.25;4.50;;;;;12.74;81.69;102061.25;4992377;28;45730;-70
2021/09/28 02:18:48;;;;;;;;;4.00;3.00;;;;;12.82;81.82;102067.13;4982961;28;45420;-70
2021/09/28 02:21:14;;;;;;;;;7.50;5.75;;;;;12.79;81.90;102073.38;4988424;28;45431;-70
2021/09/28 02:23:39;;;;;;;;;6.75;5.25;;;;;12.81;81.90;102073.34;4989244;28;46444;-70
2021/09/28 02:26:05;;;;;;;;;5.00;5.00;;;;;12.79;81.87;102069.91;4988769;28;45478;-70
2021/09/28 02:28:30;;;;;;;;;9.00;4.25;;;;;12.77;81.95;102072.56;4994693;28;45500;-70
2021/09/28 02:30:55;;;;;;;;;9.00;5.75;;;;;12.77;81.65;102071.69;4991036;28;47181;-70
2021/09/28 02:33:21;;;;;;;;;6.50;5.00;;;;;12.67;81.53;102054.41;4990670;28;46124;-70
2021/09/28 02:35:46;;;;;;;;;5.00;2.75;;;;;12.73;81.75;102070.91;4990316;28;45573;-70
2021/09/28 02:38:12;;;;;;;;;8.00;5.00;;;;;12.72;81.86;102066.56;4991977;28;45784;-70
2021/09/28 02:40:37;;;;;;;;;7.00;6.00;;;;;12.68;81.85;102054.38;4992654;28;45353;-70
2021/09/28 02:43:03;;;;;;;;;9.00;4.25;;;;;12.58;82.03;102042.41;4982338;28;46425;-70
2021/09/28 02:45:28;;;;;;;;;6.75;6.75;;;;;12.68;82.15;102064.91;4986746;28;45544;-70
2021/09/28 02:47:54;;;;;;;;;6.25;5.00;;;;;12.58;82.12;102052.94;4991390;28;45406;-70
2021/09/28 02:50:19;;;;;;;;;6.75;6.25;;;;;12.67;82.16;102064.97;4986225;28;45576;-70
2021/09/28 02:52:44;;;;;;;;;10.50;9.25;;;;;12.64;81.94;102060.66;4992382;28;46431;-70
2021/09/28 02:55:10;;;;;;;;;8.50;5.00;;;;;12.64;82.01;102055.41;4992024;28;45474;-69
2021/09/28 02:57:35;;;;;;;;;7.50;7.50;;;;;12.62;82.07;102051.91;4979846;28;45393;-70
2021/09/28 03:00:02;;;;;;;;;6.00;4.25;;;;;12.59;82.20;102048.53;4990103;28;45364;-70
2021/09/28 03:02:27;;;;;;;;;7.75;4.00;;;;;12.57;82.03;102045.06;4991551;28;45558;-70
2021/09/28 03:04:53;;;;;;;;;8.25;5.25;;;;;12.53;82.00;102053.09;4990207;28;52016;-70
2021/09/28 03:07:18;;;;;;;;;5.50;5.50;;;;;12.49;81.90;102045.31;4984982;28;53487;-70
2021/09/28 03:09:43;;;;;;;;;6.50;4.50;;;;;12.48;82.23;102047.09;4993165;28;45369;-70
2021/09/28 03:12:09;;;;;;;;;5.25;4.50;;;;;12.50;82.12;102047.88;4988098;28;45380;-70
2021/09/28 03:14:34;;;;;;;;;6.25;4.00;;;;;12.51;82.01;102054.03;4987726;28;45421;-70
2021/09/28 03:17:00;;;;;;;;;4.75;4.75;;;;;12.49;82.29;102048.81;4991031;28;45977;-70
2021/09/28 03:19:25;;;;;;;;;5.00;5.00;;;;;12.50;82.09;102047.03;4981509;28;45528;-70
2021/09/28 03:21:51;;;;;;;;;8.75;5.75;;;;;12.44;82.13;102044.59;4990327;28;46168;-70
2021/09/28 03:24:17;;;;;;;;;4.25;4.25;;;;;12.41;82.32;102047.28;4991029;28;45569;-70
2021/09/28 03:26:42;;;;;;;;;8.50;7.00;;;;;12.36;82.73;102047.44;4991215;28;45551;-70
2021/09/28 03:29:08;;;;;;;;;5.00;4.00;;;;;12.40;82.46;102049.06;4991420;28;45802;-70
2021/09/28 03:31:33;;;;;;;;;4.50;3.25;;;;;12.37;82.39;102048.28;4980864;28;46553;-70
2021/09/28 03:33:59;;;;;;;;;5.00;4.50;;;;;12.36;82.25;102049.19;4994598;28;45684;-70
2021/09/28 03:36:24;;;;;;;;;5.75;3.75;;;;;12.33;82.21;102044.03;4992477;28;45321;-69
2021/09/28 03:38:50;;;;;;;;;6.75;5.00;;;;;12.18;82.27;102024.25;4990790;28;45519;-70
2021/09/28 03:41:15;;;;;;;;;5.25;4.00;;;;;12.28;82.03;102041.53;4989219;28;46082;-69
2021/09/28 03:43:40;;;;;;;;;3.75;3.75;;;;;12.28;82.18;102047.66;4992231;28;45422;-70
2021/09/28 03:46:06;;;;;;;;;3.50;3.50;;;;;12.21;82.22;102037.31;4994498;28;45242;-70
2021/09/28 03:48:31;;;;;;;;;9.00;5.00;;;;;12.16;82.36;102034.84;4991598;28;45428;-70
2021/09/28 03:50:57;;;;;;;;;3.25;3.25;;;;;12.24;82.11;102051.28;4984463;28;45427;-70
2021/09/28 03:53:22;;;;;;;;;5.00;3.00;;;;;12.21;82.50;102038.19;4988740;28;46162;-70
2021/09/28 03:55:49;;;;;;;;;3.25;3.25;;;;;12.21;82.22;102034.69;4991879;28;45377;-70
2021/09/28 03:58:15;;;;;;;;;5.00;3.75;;;;;12.18;82.52;102030.38;4983704;28;46021;-70
2021/09/28 04:00:41;;;;;;;;;6.00;4.25;;;;;12.14;82.44;102034.00;4990871;28;46363;-70
2021/09/28 04:03:09;;;;;;;;;5.75;5.75;;;;;12.16;82.65;102032.22;5006006;28;45521;-70
2021/09/28 04:05:35;;;;;;;;;9.75;6.50;;;;;12.20;82.33;102041.75;4987675;28;46959;-70
2021/09/28 04:08:01;;;;;;;;;7.25;7.00;;;;;12.17;82.74;102035.72;4993178;28;45432;-70
2021/09/28 04:10:27;;;;;;;;;8.00;7.00;;;;;12.10;82.95;102021.81;4979885;28;46499;-70
2021/09/28 04:12:52;;;;;;;;;13.75;8.25;;;;;12.18;82.83;102046.19;4992665;28;45424;-70
2021/09/28 04:15:20;;;;;;;;;10.00;8.00;;;;;12.19;82.55;102055.81;4993500;28;45430;-70
2021/09/28 04:17:46;;;;;;;;;8.25;6.50;;;;;12.18;83.05;102050.63;4990319;28;45636;-70
2021/09/28 04:20:12;;;;;;;;;8.00;5.50;;;;;12.17;82.77;102054.16;4990004;28;45560;-70
2021/09/28 04:22:37;;;;;;;;;7.25;5.00;;;;;12.15;83.11;102050.69;4984455;28;45870;-70
2021/09/28 04:25:04;;;;;;;;;9.25;6.00;;;;;12.16;82.97;102052.41;4993062;28;45824;-70
2021/09/28 04:27:30;;;;;;;;;7.50;6.25;;;;;12.15;82.90;102051.53;4978323;28;45467;-70
2021/09/28 04:29:55;;;;;;;;;4.50;3.25;;;;;12.17;82.84;102055.03;4987030;28;46436;-70
2021/09/28 04:32:20;;;;;;;;;7.25;4.00;;;;;12.12;82.73;102041.13;4988720;28;52389;-70
2021/09/28 04:34:46;;;;;;;;;4.50;4.50;;;;;12.13;83.20;102034.94;4980701;28;45555;-70
2021/09/28 04:37:11;;;;;;;;;4.00;3.00;;;;;12.16;82.94;102042.75;4994051;28;45475;-70
2021/09/28 04:39:37;;;;;;;;;3.25;3.25;;;;;12.21;83.10;102047.88;4979647;28;45494;-70
2021/09/28 04:42:03;;;;;;;;;4.25;3.00;;;;;12.22;83.05;102033.81;4988248;28;46296;-70
2021/09/28 04:44:28;;;;;;;;;8.50;7.75;;;;;12.14;83.03;102023.47;4990518;28;45385;-70
2021/09/28 04:46:53;;;;;;;;;44.25;35.25;;;;;12.13;82.94;102015.63;4993168;28;45451;-70
2021/09/28 04:49:19;;;;;;;;;25.75;21.25;;;;;12.28;82.89;102029.22;4995987;28;54314;-70
2021/09/28 04:51:44;;;;;;;;;37.25;29.00;;;;;12.31;82.86;102036.16;4993504;28;45361;-70
2021/09/28 04:54:09;;;;;;;;;24.50;16.50;;;;;12.21;82.94;102018.88;4988933;28;49499;-70
2021/09/28 04:56:36;;;;;;;;;16.00;15.25;;;;;12.31;82.74;102036.16;4989742;28;45459;-70
2021/09/28 04:59:02;;;;;;;;;8.00;5.00;;;;;12.33;82.98;102037.00;4991901;28;46332;-69
2021/09/28 05:01:28;;;;;;;;;2.50;2.50;;;;;12.33;82.75;102046.66;4979245;28;45540;-69
2021/09/28 05:03:53;;;;;;;;;10.00;8.00;;;;;12.35;82.73;102048.34;4979267;28;45568;-69
2021/09/28 05:06:18;;;;;;;;;3.50;3.50;;;;;12.33;82.77;102047.53;4988610;28;45481;-69
2021/09/28 05:08:44;;;;;;;;;2.75;2.75;;;;;12.19;82.73;102020.72;4990267;28;45672;-70
2021/09/28 05:11:11;;;;;;;;;4.00;4.00;;;;;12.33;82.90;102041.41;4989582;28;46385;-69
2021/09/28 05:13:36;;;;;;;;;4.50;4.25;;;;;12.33;82.87;102041.41;4981193;28;45575;-70
2021/09/28 05:16:01;;;;;;;;;8.50;4.50;;;;;12.33;82.62;102038.78;4983641;28;45423;-69
2021/09/28 05:18:27;;;;;;;;;8.25;8.00;;;;;12.34;82.77;102040.50;4990022;28;45415;-69
2021/09/28 05:20:52;;;;;;;;;26.00;16.75;;;;;12.34;82.80;102043.97;4988475;28;50740;-69
2021/09/28 05:23:17;;;;;;;;;10.00;8.75;;;;;12.34;83.07;102051.91;4989171;28;45640;-69
2021/09/28 05:25:43;;;;;;;;;6.25;4.50;;;;;12.33;83.05;102058.06;4995050;28;45483;-70
2021/09/28 05:28:08;;;;;;;;;8.50;4.75;;;;;12.30;82.68;102046.75;4993124;28;46464;-69
2021/09/28 05:30:34;;;;;;;;;7.50;5.50;;;;;12.34;82.59;102053.66;4981769;28;45249;-69
2021/09/28 05:32:59;;;;;;;;;4.00;2.75;;;;;12.31;82.90;102041.44;4982374;28;45385;-69
2021/09/28 05:35:24;;;;;;;;;2.75;2.00;;;;;12.28;82.52;102050.31;4980359;28;45412;-69
2021/09/28 05:37:50;;;;;;;;;8.00;3.25;;;;;12.28;83.07;102045.03;4983195;28;45340;-69
2021/09/28 05:40:15;;;;;;;;;6.50;4.00;;;;;12.32;83.08;102053.72;4994682;28;45350;-70
2021/09/28 05:42:40;;;;;;;;;3.50;3.50;;;;;12.32;82.61;102042.28;4990567;28;45356;-70
2021/09/28 05:45:06;;;;;;;;;4.00;3.00;;;;;12.31;83.04;102035.28;4989983;28;45281;-71
2021/09/28 05:47:32;;;;;;;;;6.00;4.25;;;;;12.36;82.71;102028.97;4988505;28;46314;-71
2021/09/28 05:49:57;;;;;;;;;5.25;5.25;;;;;12.31;82.73;102014.19;4986289;28;46495;-72
2021/09/28 05:52:23;;;;;;;;;6.25;4.00;;;;;12.38;82.98;102021.03;5000778;28;45608;-72
2021/09/28 05:54:49;;;;;;;;;6.75;6.75;;;;;12.42;82.67;102020.88;4987206;28;45874;-71
2021/09/28 05:57:21;;;;;;;;;4.25;3.75;;;;;12.45;82.68;102026.06;4984498;28;45903;-72
2021/09/28 05:59:47;;;;;;;;;5.50;4.00;;;;;12.46;82.75;102024.28;4981689;28;45589;-71
2021/09/28 06:02:17;;;;;;;;;7.25;4.00;;;;;12.52;82.96;102027.59;4987085;28;45516;-71
2021/09/28 06:04:44;;;;;;;;;6.75;5.00;;;;;12.54;82.77;102038.13;4988129;28;45490;-71
2021/09/28 06:07:09;;;;;;;;;9.50;5.50;;;;;12.58;82.22;102036.22;4991418;28;45492;-71
2021/09/28 06:09:38;;;;;;;;;4.75;4.00;;;;;12.59;82.25;102028.28;5008882;28;46190;-71
2021/09/28 06:12:05;;;;;;;;;7.50;4.25;;;;;12.68;82.79;102040.31;4992667;28;45384;-71
2021/09/28 06:14:31;;;;;;;;;6.00;6.00;;;;;12.73;82.51;102043.69;4992932;28;45362;-71
2021/09/28 06:16:57;;;;;;;;;7.00;6.00;;;;;12.79;82.55;102035.59;5009176;28;47475;-71
2021/09/28 06:19:23;;;;;;;;;5.50;5.50;;;;;12.82;82.32;102030.22;4981587;28;45766;-71
2021/09/28 06:21:48;;;;;;;;;7.00;5.00;;;;;12.90;82.25;102044.03;4997429;28;45776;-71
2021/09/28 06:24:14;;;;;;;;;6.50;4.50;;;;;12.94;82.04;102040.34;4990181;28;45573;-71
2021/09/28 06:26:39;;;;;;;;;8.75;5.00;;;;;13.01;82.18;102043.69;4986442;28;46593;-72
2021/09/28 06:29:05;;;;;;;;;6.00;6.00;;;;;13.09;81.23;102039.00;5002118;28;45570;-72
2021/09/28 06:31:30;;;;;;;;;8.50;5.25;;;;;13.18;81.33;102035.22;4993219;28;45441;-71
2021/09/28 06:33:55;;;;;;;;;4.25;4.00;;;;;13.25;80.97;102039.41;4994546;28;45383;-71
2021/09/28 06:36:21;;;;;;;;;6.75;5.75;;;;;13.29;81.54;102033.97;4993251;28;45386;-71
2021/09/28 06:38:46;;;;;;;;;6.25;6.00;;;;;13.29;81.19;102033.97;4989928;28;45550;-71
2021/09/28 06:41:11;;;;;;;;;5.25;4.00;;;;;13.35;81.56;102039.97;4992593;28;45358;-71
2021/09/28 06:43:37;;;;;;;;;5.00;4.00;;;;;13.37;80.84;102039.00;4993332;28;45754;-72
2021/09/28 06:46:02;;;;;;;;;5.50;5.50;;;;;13.45;81.03;102033.44;4995041;28;46233;-71
2021/09/28 06:48:28;;;;;;;;;8.25;5.00;;;;;13.54;80.31;102043.72;4980749;28;45773;-71
2021/09/28 06:50:53;;;;;;;;;6.00;6.00;;;;;13.59;80.62;102033.84;4990094;28;45506;-72
2021/09/28 06:53:18;;;;;;;;;7.50;4.25;;;;;13.66;80.14;102037.97;4992642;28;45488;-71
2021/09/28 06:55:44;;;;;;;;;5.50;4.25;;;;;13.72;80.05;102031.63;4993108;28;45523;-71
2021/09/28 06:58:09;;;;;;;;;4.00;4.00;;;;;13.77;80.13;102027.91;4981763;28;50963;-71
2021/09/28 07:00:37;;;;;;;;;4.00;4.00;;;;;13.90;80.23;102030.13;4992875;28;45413;-71
2021/09/28 07:03:04;;;;;;;;;5.00;4.50;;;;;14.03;80.15;102029.59;4988737;28;45300;-72
2021/09/28 07:05:29;;;;;;;;;5.75;4.75;;;;;14.15;79.41;102028.31;4992300;28;46355;-71
2021/09/28 07:07:54;;;;;;;;;3.00;3.00;;;;;14.26;79.65;102036.69;4995092;28;45382;-72
2021/09/28 07:10:20;;;;;;;;;5.50;4.00;;;;;14.38;78.77;102023.91;4994979;28;45470;-72
2021/09/28 07:12:45;;;;;;;;;4.50;4.00;;;;;14.48;79.23;102023.53;4977852;28;45423;-72
2021/09/28 07:15:11;;;;;;;;;5.25;4.50;;;;;14.66;79.03;102029.88;4991877;28;50913;-71
2021/09/28 07:17:36;;;;;;;;;5.50;5.50;;;;;14.75;77.40;102026.88;4990885;28;45411;-72
2021/09/28 07:20:03;;;;;;;;;7.00;5.50;;;;;14.95;77.32;102031.38;4991741;28;48051;-72
2021/09/28 07:22:28;;;;;;;;;6.75;5.50;;;;;15.25;77.53;102016.03;4993121;28;45636;-72
2021/09/28 07:24:55;;;;;;;;;4.50;4.00;;;;;15.39;75.85;102007.47;4993565;28;46331;-71
2021/09/28 07:27:21;;;;;;;;;6.75;5.25;;;;;15.58;75.36;102023.44;4987644;28;45353;-71
2021/09/28 07:29:46;;;;;;;;;5.25;4.25;;;;;15.67;75.37;102024.88;4988864;28;45361;-72
2021/09/28 07:32:13;;;;;;;;;3.75;3.25;;;;;15.79;74.60;102017.25;4984922;28;45432;-72
2021/09/28 07:34:39;;;;;;;;;6.00;5.00;;;;;15.99;74.71;102018.16;4990927;28;46303;-72
2021/09/28 07:37:04;;;;;;;;;4.00;4.00;;;;;16.37;74.56;102013.72;5009450;28;45506;-72
2021/09/28 07:39:30;;;;;;;;;7.00;4.25;;;;;16.81;74.15;102001.03;4982134;28;45530;-72
2021/09/28 07:41:55;;;;;;;;;4.75;4.25;;;;;17.49;73.51;101998.50;4989557;28;45494;-71
2021/09/28 07:44:20;;;;;;;;;5.50;4.00;;;;;18.04;72.09;102011.53;4991558;28;46463;-72
2021/09/28 07:46:45;;;;;;;;;4.25;4.25;;;;;18.42;70.34;102022.72;4991798;28;45449;-72
2021/09/28 07:49:11;;;;;;;;;3.50;3.50;;;;;18.61;69.65;102013.72;4982437;28;45410;-71
2021/09/28 07:51:36;;;;;;;;;4.50;4.25;;;;;18.86;68.30;102018.56;4991979;28;45536;-72
2021/09/28 07:54:02;;;;;;;;;8.25;5.00;;;;;19.60;67.48;102023.13;4991313;28;45479;-72
2021/09/28 07:56:28;;;;;;;;;6.00;4.50;;;;;20.31;67.08;102015.97;4991675;28;46893;-71
2021/09/28 07:58:54;;;;;;;;;6.75;6.25;;;;;21.09;65.37;102010.91;4991396;28;45408;-72
2021/09/28 08:01:20;;;;;;;;;7.00;6.00;;;;;21.85;63.84;102026.22;4994237;28;45308;-72
2021/09/28 08:03:45;;;;;;;;;5.00;5.00;;;;;22.50;61.84;102030.56;4984507;28;45997;-72
2021/09/28 08:06:11;;;;;;;;;8.25;6.50;;;;;22.80;62.32;102031.94;4990354;28;45521;-72
2021/09/28 08:08:36;;;;;;;;;9.75;6.75;;;;;23.00;59.96;102028.66;4991579;28;45460;-72
2021/09/28 08:11:01;;;;;;;;;9.00;7.25;;;;;23.60;59.31;102027.66;4990304;28;54522;-72
2021/09/28 08:13:27;;;;;;;;;7.25;5.75;;;;;24.34;58.34;102021.84;4994234;28;46299;-72
2021/09/28 08:15:52;;;;;;;;;8.00;6.75;;;;;25.12;56.94;102020.84;4992344;28;45237;-72
2021/09/28 08:18:18;;;;;;;;;7.25;6.50;;;;;25.40;54.83;102024.72;4991219;28;45611;-72
2021/09/28 08:20:45;;;;;;;;;8.00;7.25;;;;;25.60;54.87;102026.53;4991038;28;45343;-72
2021/09/28 08:23:11;;;;;;;;;6.50;5.50;;;;;25.93;54.41;102011.16;4991237;28;45611;-72
2021/09/28 08:25:47;;;;;;;;;6.50;6.50;;;;;26.38;52.80;102025.09;4991594;28;45539;-72
2021/09/28 08:31:02;;;;;;;;;6.25;6.00;;;;;27.19;50.40;102017.69;4993244;28;45312;-72
2021/09/28 08:33:29;;;;;;;;;6.00;6.00;;;;;27.75;49.34;102026.88;4977529;28;46127;-72
2021/09/28 08:35:54;;;;;;;;;5.75;5.00;;;;;28.18;48.61;102026.25;4983137;28;45388;-72
2021/09/28 08:38:20;;;;;;;;;6.25;6.25;;;;;28.46;48.09;102023.59;4983873;28;45417;-72
2021/09/28 08:40:45;;;;;;;;;6.75;5.50;;;;;28.54;46.55;102019.13;4991425;28;45312;-72
2021/09/28 08:43:10;;;;;;;;;11.00;7.50;;;;;28.47;46.21;102022.59;4994603;28;45444;-72
2021/09/28 08:45:36;;;;;;;;;9.00;7.50;;;;;28.47;44.94;102025.31;4991256;28;45476;-72
2021/09/28 08:48:01;;;;;;;;;8.50;7.25;;;;;28.45;46.04;102017.34;4990689;28;45289;-72
2021/09/28 08:50:26;;;;;;;;;7.75;7.50;;;;;28.77;45.43;102033.06;4990574;28;45389;-72
2021/09/28 08:52:53;;;;;;;;;9.50;5.25;;;;;29.50;45.70;102030.19;4990779;28;46293;-72
2021/09/28 08:55:20;;;;;;;;;8.75;6.75;;;;;30.09;44.58;102024.97;4994863;28;45649;-72
2021/09/28 08:57:45;;;;;;;;;5.00;4.25;;;;;30.62;42.89;102023.81;4991522;28;45485;-72
2021/09/28 09:00:13;;;;;;;;;3.75;3.25;;;;;30.89;43.50;102034.41;4990259;28;45242;-72
2021/09/28 09:02:43;;;;;;;;;2.00;2.00;;;;;31.12;42.22;102031.88;4985942;28;45570;-72
2021/09/28 09:05:14;;;;;;;;;4.50;4.50;;;;;31.42;41.15;102024.91;4985439;28;45522;-72
2021/09/28 09:07:40;;;;;;;;;6.50;3.25;;;;;31.53;40.94;102022.88;4991878;28;45473;-72
2021/09/28 09:10:07;;;;;;;;;6.25;4.25;;;;;31.87;40.40;102025.38;4993695;28;45410;-72
2021/09/28 09:12:39;;;;;;;;;5.50;5.00;;;;;32.18;39.21;102020.84;4991206;28;47436;-72
2021/09/28 09:15:25;;;;;;;;;4.50;3.75;;;;;32.34;38.58;102030.78;4989490;28;45715;-72
2021/09/28 09:17:52;;;;;;;;;4.25;3.00;;;;;32.22;38.89;102033.06;4990558;28;45475;-72
2021/09/28 09:20:24;;;;;;;;;5.25;3.50;;;;;32.07;38.35;102032.13;4990151;28;45523;-72
2021/09/28 09:22:49;;;;;;;;;6.00;3.00;;;;;31.62;36.66;102028.13;4990153;28;47348;-72
2021/09/28 09:25:19;;;;;;;;;5.00;3.00;;;;;30.90;37.62;102032.53;4978841;28;45496;-72
2021/09/28 09:27:45;;;;;;;;;5.75;4.00;;;;;30.30;38.07;102027.28;4991326;28;45313;-72
2021/09/28 09:30:21;;;;;;;;;4.25;4.25;;;;;29.80;39.02;102018.03;4990160;28;45973;-72
2021/09/28 09:32:50;;;;;;;;;6.50;5.00;;;;;29.36;39.55;102018.06;4989329;28;45270;-72
2021/09/28 09:35:27;;;;;;;;;5.25;5.25;;;;;28.82;39.96;102013.69;4990138;28;45405;-72
2021/09/28 09:38:05;;;;;;;;;4.00;3.50;;;;;28.37;40.47;102008.28;4993475;28;45521;-72
2021/09/28 09:40:31;;;;;;;;;5.50;4.00;;;;;27.80;40.69;102006.53;5013329;28;45532;-72
2021/09/28 09:42:57;;;;;;;;;5.00;4.25;;;;;27.24;41.58;102001.91;4997556;28;45466;-72
2021/09/28 09:45:23;;;;;;;;;3.00;3.00;;;;;26.95;41.94;102010.03;4993819;28;45318;-72
2021/09/28 09:47:49;;;;;;;;;3.00;3.00;;;;;26.69;42.71;102007.03;4993430;28;45565;-72
2021/09/28 09:50:19;;;;;;;;;4.00;4.00;;;;;26.60;42.69;102002.47;4993649;28;45754;-72
2021/09/28 09:52:57;;;;;;;;;3.00;2.75;;;;;26.64;43.65;101995.81;4993834;28;47671;-72
2021/09/28 09:55:24;;;;;;;;;3.00;3.00;;;;;27.01;42.86;102001.34;4982241;28;45577;-73
2021/09/28 09:57:50;;;;;;;;;4.50;4.00;;;;;27.33;42.15;101985.88;4993970;28;45628;-72
2021/09/28 10:00:15;;;;;;;;;3.25;2.75;;;;;27.47;42.35;101980.88;4993881;28;45561;-72
2021/09/28 10:02:41;;;;;;;;;3.00;3.00;;;;;27.45;41.86;101974.75;4987850;28;45726;-72
2021/09/28 10:05:07;;;;;;;;;2.00;2.00;;;;;27.47;41.79;101971.91;4984190;28;45459;-72
2021/09/28 10:07:33;;;;;;;;;3.50;3.00;;;;;27.68;42.18;101974.41;4995421;28;45415;-72
2021/09/28 10:09:58;;;;;;;;;3.00;2.75;;;;;27.82;42.07;101969.41;4995470;28;45417;-72
2021/09/28 10:12:37;;;;;;;;;3.00;2.50;;;;;28.11;41.74;101972.97;4993362;28;45423;-72
2021/09/28 10:15:21;;;;;;;;;3.00;3.00;;;;;28.14;41.09;101968.13;4992979;28;45380;-72
2021/09/28 10:17:48;;;;;;;;;4.25;3.00;;;;;28.39;41.04;101969.25;4992865;28;45321;-72
2021/09/28 10:20:28;;;;;;;;;3.00;2.25;;;;;28.70;40.57;101972.44;4992873;28;45544;-72
2021/09/28 10:23:14;;;;;;;;;2.50;2.00;;;;;28.93;40.29;101963.88;4993056;28;47470;-72
2021/09/28 10:25:42;;;;;;;;;3.25;3.00;;;;;28.66;39.94;101962.97;4993845;28;45392;-72
2021/09/28 10:28:07;;;;;;;;;4.00;3.00;;;;;28.49;40.15;101975.47;4996636;28;45453;-72
2021/09/28 10:30:33;;;;;;;;;7.67;3.00;;;;;28.33;40.79;101959.91;4993275;28;45341;-72
2021/09/28 10:33:04;;;;;;;;;1.50;1.50;;;;;28.38;40.79;101967.56;4989633;28;46229;-72
2021/09/28 10:35:32;;;;;;;;;4.50;3.25;;;;;28.34;41.26;101960.75;4992816;28;45694;-72
2021/09/28 10:38:07;;;;;;;;;1.00;1.00;;;;;28.24;39.96;101962.63;4992793;28;45447;-72
2021/09/28 10:40:32;;;;;;;;;1.50;1.00;;;;;28.01;40.38;101959.50;4995179;28;45510;-72
2021/09/28 10:43:01;;;;;;;;;3.25;2.00;;;;;27.81;40.24;101947.94;4994709;28;47305;-72
2021/09/28 10:45:29;;;;;;;;;4.25;3.50;;;;;27.49;40.81;101953.72;4992908;28;45626;-73
2021/09/28 10:47:54;;;;;;;;;4.50;3.00;;;;;27.33;39.87;101954.31;4991575;28;45365;-72
2021/09/28 10:50:37;;;;;;;;;6.00;2.25;;;;;27.02;40.91;101951.78;4992480;28;45442;-72
2021/09/28 10:53:08;;;;;;;;;4.25;2.00;;;;;26.99;40.89;101956.59;4992295;28;46942;-72
2021/09/28 10:55:53;;;;;;;;;3.00;3.00;;;;;26.85;40.94;101954.38;4994118;28;45407;-72
2021/09/28 10:58:20;;;;;;;;;5.25;1.00;;;;;26.80;41.20;101957.47;4981200;28;45492;-72
2021/09/28 11:00:45;;;;;;;;;1.50;1.25;;;;;26.75;41.05;101957.91;4991520;28;45420;-72
2021/09/28 11:03:13;;;;;;;;;2.00;2.00;;;;;26.67;41.40;101949.66;4986787;28;46569;-72
2021/09/28 11:05:42;;;;;;;;;3.25;1.50;;;;;26.66;41.13;101950.66;4987581;28;45577;-72
2021/09/28 11:08:12;;;;;;;;;2.75;1.00;;;;;26.37;40.55;101950.63;4992147;28;45520;-72
2021/09/28 11:10:38;;;;;;;;;1.50;1.50;;;;;25.97;40.67;101948.81;4993933;28;45544;-72
2021/09/28 11:13:09;;;;;;;;;0.00;0.00;;;;;25.74;40.76;101948.16;4994883;28;45489;-72
2021/09/28 11:15:35;;;;;;;;;3.50;2.25;;;;;25.49;42.24;101935.97;4992726;28;45678;-72
2021/09/28 11:18:11;;;;;;;;;1.50;0.00;;;;;25.33;41.73;101932.03;4991833;28;45408;-72
2021/09/28 11:20:38;;;;;;;;;4.00;2.00;;;;;25.31;42.20;101929.47;4991832;28;45491;-72
2021/09/28 11:23:10;;;;;;;;;0.00;0.00;;;;;25.28;41.36;101927.06;4991914;28;45573;-72